sensor_id;sensor_type;location;lat;lon;timestamp;pressure;altitude;pressure_sealevel;temperature;humidity
45369;BME280;51342;55.250;37.668;2023-02-03T00:04:58;98891.34;;;-1.42;78.27
45369;BME280;51342;55.250;37.668;2023-02-03T00:07:30;98884.50;;;-1.43;78.12
45369;BME280;51342;55.250;37.668;2023-02-03T00:10:01;98883.72;;;-1.42;78.16
45369;BME280;51342;55.250;37.668;2023-02-03T00:12:33;98892.53;;;-1.39;78.18
45369;BME280;51342;55.250;37.668;2023-02-03T00:15:05;98886.25;;;-1.42;78.15
45369;BME280;51342;55.250;37.668;2023-02-03T00:17:37;98869.00;;;-1.46;78.08
45369;BME280;51342;55.250;37.668;2023-02-03T00:20:09;98887.56;;;-1.37;78.21
45369;BME280;51342;55.250;37.668;2023-02-03T00:22:41;98882.38;;;-1.39;78.43
45369;BME280;51342;55.250;37.668;2023-02-03T00:25:12;98887.56;;;-1.37;78.21
45369;BME280;51342;55.250;37.668;2023-02-03T00:27:44;98878.81;;;-1.41;78.24
45369;BME280;51342;55.250;37.668;2023-02-03T00:30:15;98883.38;;;-1.37;78.20
45369;BME280;51342;55.250;37.668;2023-02-03T00:32:47;98889.38;;;-1.36;78.02
45369;BME280;51342;55.250;37.668;2023-02-03T00:35:18;98883.25;;;-1.38;78.55
45369;BME280;51342;55.250;37.668;2023-02-03T00:37:54;98888.63;;;-1.35;78.30
45369;BME280;51342;55.250;37.668;2023-02-03T00:40:25;98882.50;;;-1.37;78.25
45369;BME280;51342;55.250;37.668;2023-02-03T00:42:57;98882.78;;;-1.34;78.47
45369;BME280;51342;55.250;37.668;2023-02-03T00:45:28;98886.09;;;-1.35;78.49
45369;BME280;51342;55.250;37.668;2023-02-03T00:48:00;98881.28;;;-1.32;78.37
45369;BME280;51342;55.250;37.668;2023-02-03T00:50:32;98887.88;;;-1.34;78.25
45369;BME280;51342;55.250;37.668;2023-02-03T00:53:03;98891.28;;;-1.34;78.32
45369;BME280;51342;55.250;37.668;2023-02-03T00:55:35;98892.19;;;-1.33;78.45
45369;BME280;51342;55.250;37.668;2023-02-03T00:58:06;98890.41;;;-1.34;78.29
45369;BME280;51342;55.250;37.668;2023-02-03T01:00:37;98892.19;;;-1.33;78.54
45369;BME280;51342;55.250;37.668;2023-02-03T01:03:09;98891.72;;;-1.29;78.41
45369;BME280;51342;55.250;37.668;2023-02-03T01:05:40;98885.59;;;-1.31;78.48
45369;BME280;51342;55.250;37.668;2023-02-03T01:08:14;98889.78;;;-1.31;78.68
45369;BME280;51342;55.250;37.668;2023-02-03T01:10:46;98885.88;;;-1.28;78.72
45369;BME280;51342;55.250;37.668;2023-02-03T01:13:17;98890.94;;;-1.28;78.80
45369;BME280;51342;55.250;37.668;2023-02-03T01:15:49;98883.81;;;-1.32;78.71
45369;BME280;51342;55.250;37.668;2023-02-03T01:18:20;98883.03;;;-1.31;78.69
45369;BME280;51342;55.250;37.668;2023-02-03T01:20:51;98878.72;;;-1.32;79.02
45369;BME280;51342;55.250;37.668;2023-02-03T01:23:23;98885.88;;;-1.28;78.97
45369;BME280;51342;55.250;37.668;2023-02-03T01:25:54;98884.34;;;-1.26;78.71
45369;BME280;51342;55.250;37.668;2023-02-03T01:28:25;98878.38;;;-1.26;78.71
45369;BME280;51342;55.250;37.668;2023-02-03T01:30:57;98878.53;;;-1.25;78.83
45369;BME280;51342;55.250;37.668;2023-02-03T01:33:39;98884.66;;;-1.23;78.61
45369;BME280;51342;55.250;37.668;2023-02-03T01:36:11;98874.50;;;-1.23;78.94
45369;BME280;51342;55.250;37.668;2023-02-03T01:38:44;98878.69;;;-1.23;78.81
45369;BME280;51342;55.250;37.668;2023-02-03T01:41:19;98877.63;;;-1.25;78.83
45369;BME280;51342;55.250;37.668;2023-02-03T01:43:53;98884.66;;;-1.23;78.98
45369;BME280;51342;55.250;37.668;2023-02-03T01:49:16;98877.03;;;-1.23;78.95
45369;BME280;51342;55.250;37.668;2023-02-03T01:51:50;98876.41;;;-1.20;78.94
45369;BME280;51342;55.250;37.668;2023-02-03T01:54:27;98876.28;;;-1.22;78.88
45369;BME280;51342;55.250;37.668;2023-02-03T01:57:03;98877.03;;;-1.23;79.01
45369;BME280;51342;55.250;37.668;2023-02-03T01:59:37;98883.13;;;-1.21;78.98
45369;BME280;51342;55.250;37.668;2023-02-03T02:02:10;98877.28;;;-1.20;79.18
45369;BME280;51342;55.250;37.668;2023-02-03T02:04:50;98866.00;;;-1.23;79.02
45369;BME280;51342;55.250;37.668;2023-02-03T02:07:23;98871.19;;;-1.22;79.20
45369;BME280;51342;55.250;37.668;2023-02-03T02:09:56;98874.16;;;-1.17;79.12
45369;BME280;51342;55.250;37.668;2023-02-03T02:12:27;98869.19;;;-1.16;78.96
45369;BME280;51342;55.250;37.668;2023-02-03T02:14:59;98872.91;;;-1.12;79.33
45369;BME280;51342;55.250;37.668;2023-02-03T02:17:44;98880.53;;;-1.12;78.95
45369;BME280;51342;55.250;37.668;2023-02-03T02:20:37;98875.94;;;-1.16;78.97
45369;BME280;51342;55.250;37.668;2023-02-03T02:27:01;98878.34;;;-1.18;79.11
45369;BME280;51342;55.250;37.668;2023-02-03T02:40:22;98869.63;;;-1.11;79.47
45369;BME280;51342;55.250;37.668;2023-02-03T02:43:18;98867.56;;;-1.15;79.34
45369;BME280;51342;55.250;37.668;2023-02-03T02:45:59;98857.28;;;-1.17;79.36
45369;BME280;51342;55.250;37.668;2023-02-03T02:48:54;98859.53;;;-1.20;79.36
45369;BME280;51342;55.250;37.668;2023-02-03T02:51:30;98856.50;;;-1.16;79.49
45369;BME280;51342;55.250;37.668;2023-02-03T02:54:06;98858.28;;;-1.15;79.28
45369;BME280;51342;55.250;37.668;2023-02-03T02:56:42;98859.19;;;-1.14;79.32
45369;BME280;51342;55.250;37.668;2023-02-03T02:59:16;98854.25;;;-1.13;79.56
45369;BME280;51342;55.250;37.668;2023-02-03T03:01:47;98851.72;;;-1.13;79.46
45369;BME280;51342;55.250;37.668;2023-02-03T03:04:23;98857.81;;;-1.11;79.35
45369;BME280;51342;55.250;37.668;2023-02-03T03:07:00;98861.13;;;-1.30;79.81
45369;BME280;51342;55.250;37.668;2023-02-03T03:12:17;98866.06;;;-1.13;79.50
45369;BME280;51342;55.250;37.668;2023-02-03T03:14:59;98861.13;;;-1.12;79.54
45369;BME280;51342;55.250;37.668;2023-02-03T03:17:41;98868.84;;;-1.10;79.52
45369;BME280;51342;55.250;37.668;2023-02-03T03:20:19;98865.44;;;-1.11;79.70
45369;BME280;51342;55.250;37.668;2023-02-03T03:23:02;98862.13;;;-1.10;79.64
45369;BME280;51342;55.250;37.668;2023-02-03T03:25:40;98869.75;;;-1.10;79.60
45369;BME280;51342;55.250;37.668;2023-02-03T03:28:20;98863.03;;;-1.28;79.77
45369;BME280;51342;55.250;37.668;2023-02-03T03:30:54;98862.47;;;-1.15;79.87
45369;BME280;51342;55.250;37.668;2023-02-03T03:33:26;98868.84;;;-1.10;79.66
45369;BME280;51342;55.250;37.668;2023-02-03T03:36:10;98873.03;;;-1.11;80.16
45369;BME280;51342;55.250;37.668;2023-02-03T03:44:21;98860.75;;;-1.06;80.07
45369;BME280;51342;55.250;37.668;2023-02-03T03:47:18;98868.09;;;-1.09;79.73
45369;BME280;51342;55.250;37.668;2023-02-03T03:49:53;98860.75;;;-1.06;79.99
45369;BME280;51342;55.250;37.668;2023-02-03T03:52:30;98866.09;;;-1.03;80.16
45369;BME280;51342;55.250;37.668;2023-02-03T03:55:06;98862.66;;;-1.03;80.13
45369;BME280;51342;55.250;37.668;2023-02-03T03:57:44;98864.31;;;-1.04;79.79
45369;BME280;51342;55.250;37.668;2023-02-03T04:00:18;98863.22;;;-0.97;80.24
45369;BME280;51342;55.250;37.668;2023-02-03T04:02:51;98865.75;;;-0.97;80.13
45369;BME280;51342;55.250;37.668;2023-02-03T04:05:24;98866.03;;;-0.94;80.19
45369;BME280;51342;55.250;37.668;2023-02-03T04:07:58;98866.91;;;-0.94;80.04
45369;BME280;51342;55.250;37.668;2023-02-03T04:10:35;98864.09;;;-0.97;80.14
45369;BME280;51342;55.250;37.668;2023-02-03T04:13:07;98870.22;;;-1.14;80.38
45369;BME280;51342;55.250;37.668;2023-02-03T04:15:38;98870.44;;;-1.02;80.17
45369;BME280;51342;55.250;37.668;2023-02-03T04:18:12;98860.41;;;-1.00;80.11
45369;BME280;51342;55.250;37.668;2023-02-03T04:20:44;98871.09;;;-0.94;80.33
45369;BME280;51342;55.250;37.668;2023-02-03T04:23:16;98873.78;;;-0.93;80.19
45369;BME280;51342;55.250;37.668;2023-02-03T04:25:47;98866.16;;;-0.93;80.30
45369;BME280;51342;55.250;37.668;2023-02-03T04:28:19;98875.84;;;-0.89;80.30
45369;BME280;51342;55.250;37.668;2023-02-03T04:30:50;98872.66;;;-0.86;80.58
45369;BME280;51342;55.250;37.668;2023-02-03T04:33:21;98872.66;;;-0.86;80.61
45369;BME280;51342;55.250;37.668;2023-02-03T04:35:53;98869.34;;;-0.85;80.31
45369;BME280;51342;55.250;37.668;2023-02-03T04:38:24;98868.63;;;-0.84;80.42
45369;BME280;51342;55.250;37.668;2023-02-03T04:40:55;98871.16;;;-0.84;80.36
45369;BME280;51342;55.250;37.668;2023-02-03T04:43:27;98862.03;;;-0.82;80.34
45369;BME280;51342;55.250;37.668;2023-02-03T04:45:59;98876.50;;;-0.81;80.54
45369;BME280;51342;55.250;37.668;2023-02-03T04:48:31;98869.66;;;-0.82;80.42
45369;BME280;51342;55.250;37.668;2023-02-03T04:51:05;98864.56;;;-0.82;80.59
45369;BME280;51342;55.250;37.668;2023-02-03T04:53:36;98867.22;;;-0.81;80.74
45369;BME280;51342;55.250;37.668;2023-02-03T04:56:08;98868.13;;;-0.80;80.81
45369;BME280;51342;55.250;37.668;2023-02-03T04:58:39;98875.00;;;-0.79;80.79
45369;BME280;51342;55.250;37.668;2023-02-03T05:01:11;98879.31;;;-0.78;80.86
45369;BME280;51342;55.250;37.668;2023-02-03T05:03:42;98873.47;;;-0.77;80.90
45369;BME280;51342;55.250;37.668;2023-02-03T05:06:14;98859.78;;;-0.79;80.68
45369;BME280;51342;55.250;37.668;2023-02-03T05:08:45;98869.16;;;-0.78;80.83
45369;BME280;51342;55.250;37.668;2023-02-03T05:11:17;98870.19;;;-0.76;80.84
45369;BME280;51342;55.250;37.668;2023-02-03T05:13:48;98871.06;;;-0.75;80.89
45369;BME280;51342;55.250;37.668;2023-02-03T05:16:19;98874.50;;;-0.75;81.10
45369;BME280;51342;55.250;37.668;2023-02-03T05:18:57;98869.28;;;-0.76;80.94
45369;BME280;51342;55.250;37.668;2023-02-03T05:22:16;98868.47;;;-0.86;80.97
45369;BME280;51342;55.250;37.668;2023-02-03T05:24:57;98877.38;;;-0.81;81.20
45369;BME280;51342;55.250;37.668;2023-02-03T05:27:28;98863.81;;;-0.81;81.05
45369;BME280;51342;55.250;37.668;2023-02-03T05:30:00;98868.13;;;-0.80;81.07
45369;BME280;51342;55.250;37.668;2023-02-03T05:32:31;98880.34;;;-0.76;81.29
45369;BME280;51342;55.250;37.668;2023-02-03T05:35:03;98869.41;;;-0.75;81.49
45369;BME280;51342;55.250;37.668;2023-02-03T05:37:34;98871.94;;;-0.75;81.41
45369;BME280;51342;55.250;37.668;2023-02-03T05:40:06;98875.53;;;-0.73;81.59
45369;BME280;51342;55.250;37.668;2023-02-03T05:42:56;98866.88;;;-0.75;81.20
45369;BME280;51342;55.250;37.668;2023-02-03T05:45:28;98873.00;;;-0.73;81.50
45369;BME280;51342;55.250;37.668;2023-02-03T05:47:59;98867.28;;;-0.70;81.64
45369;BME280;51342;55.250;37.668;2023-02-03T05:50:33;98875.78;;;-0.70;81.42
45369;BME280;51342;55.250;37.668;2023-02-03T05:53:14;98872.47;;;-0.69;81.46
45369;BME280;51342;55.250;37.668;2023-02-03T05:55:45;98871.47;;;-0.71;81.55
45369;BME280;51342;55.250;37.668;2023-02-03T05:58:16;98882.03;;;-0.66;81.56
45369;BME280;51342;55.250;37.668;2023-02-03T06:00:48;98865.91;;;-0.67;81.62
45369;BME280;51342;55.250;37.668;2023-02-03T06:03:19;98875.44;;;-0.64;81.73
45369;BME280;51342;55.250;37.668;2023-02-03T06:05:51;98872.28;;;-0.62;81.66
45369;BME280;51342;55.250;37.668;2023-02-03T06:08:22;98877.91;;;-0.56;81.66
45369;BME280;51342;55.250;37.668;2023-02-03T06:11:00;98875.34;;;-0.56;81.71
45369;BME280;51342;55.250;37.668;2023-02-03T06:13:31;98875.47;;;-0.54;81.80
45369;BME280;51342;55.250;37.668;2023-02-03T06:16:03;98879.78;;;-0.53;81.64
45369;BME280;51342;55.250;37.668;2023-02-03T06:18:34;98883.38;;;-0.51;81.75
45369;BME280;51342;55.250;37.668;2023-02-03T06:21:06;98876.66;;;-0.50;81.60
45369;BME280;51342;55.250;37.668;2023-02-03T06:23:37;98881.97;;;-0.47;81.44
45369;BME280;51342;55.250;37.668;2023-02-03T06:26:09;98890.91;;;-0.42;81.59
45369;BME280;51342;55.250;37.668;2023-02-03T06:28:40;98881.75;;;-0.40;81.91
45369;BME280;51342;55.250;37.668;2023-02-03T06:31:12;98882.78;;;-0.38;81.57
45369;BME280;51342;55.250;37.668;2023-02-03T06:33:43;98887.34;;;-0.34;81.61
45369;BME280;51342;55.250;37.668;2023-02-03T06:36:15;98887.63;;;-0.31;81.69
45369;BME280;51342;55.250;37.668;2023-02-03T06:38:46;98875.03;;;-0.30;81.49
45369;BME280;51342;55.250;37.668;2023-02-03T06:41:17;98876.97;;;-0.27;81.51
45369;BME280;51342;55.250;37.668;2023-02-03T06:43:49;98877.88;;;-0.27;81.54
45369;BME280;51342;55.250;37.668;2023-02-03T06:46:20;98882.31;;;-0.24;81.72
45369;BME280;51342;55.250;37.668;2023-02-03T06:49:22;98869.06;;;-0.30;81.53
45369;BME280;51342;55.250;37.668;2023-02-03T06:52:31;98872.00;;;-0.25;81.96
45369;BME280;51342;55.250;37.668;2023-02-03T06:55:03;98868.97;;;-0.21;81.51
45369;BME280;51342;55.250;37.668;2023-02-03T06:57:43;98875.34;;;-0.16;81.58
45369;BME280;51342;55.250;37.668;2023-02-03T07:00:16;98871.28;;;-0.14;81.53
45369;BME280;51342;55.250;37.668;2023-02-03T07:02:55;98862.66;;;-0.16;81.39
45369;BME280;51342;55.250;37.668;2023-02-03T07:05:27;98870.91;;;-0.09;81.35
45369;BME280;51342;55.250;37.668;2023-02-03T07:07:59;98877.16;;;-0.05;81.38
45369;BME280;51342;55.250;37.668;2023-02-03T07:10:30;98871.19;;;-0.06;81.43
45369;BME280;51342;55.250;37.668;2023-02-03T07:13:05;98884.91;;;-0.04;81.63
45369;BME280;51342;55.250;37.668;2023-02-03T07:15:42;98878.56;;;0.02;81.41
45369;BME280;51342;55.250;37.668;2023-02-03T07:18:20;98882.00;;;0.02;81.12
45369;BME280;51342;55.250;37.668;2023-02-03T07:20:54;98880.47;;;0.04;81.41
45369;BME280;51342;55.250;37.668;2023-02-03T07:23:26;98889.13;;;0.06;81.18
45369;BME280;51342;55.250;37.668;2023-02-03T07:26:04;98886.44;;;0.05;81.06
45369;BME280;51342;55.250;37.668;2023-02-03T07:28:36;98889.25;;;0.08;81.27
45369;BME280;51342;55.250;37.668;2023-02-03T07:31:07;98887.72;;;0.10;81.15
45369;BME280;51342;55.250;37.668;2023-02-03T07:33:40;98879.19;;;0.09;81.09
45369;BME280;51342;55.250;37.668;2023-02-03T07:36:11;98877.66;;;0.11;81.13
45369;BME280;51342;55.250;37.668;2023-02-03T07:38:43;98883.41;;;0.19;80.88
45369;BME280;51342;55.250;37.668;2023-02-03T07:41:14;98868.16;;;0.19;80.69
45369;BME280;51342;55.250;37.668;2023-02-03T07:43:46;98868.00;;;0.28;80.83
45369;BME280;51342;55.250;37.668;2023-02-03T07:46:17;98874.53;;;0.34;80.76
45369;BME280;51342;55.250;37.668;2023-02-03T07:48:49;98870.69;;;0.39;80.65
45369;BME280;51342;55.250;37.668;2023-02-03T07:51:20;98872.50;;;0.40;80.52
45369;BME280;51342;55.250;37.668;2023-02-03T07:53:52;98881.25;;;0.44;80.56
45369;BME280;51342;55.250;37.668;2023-02-03T07:56:23;98867.53;;;0.42;80.52
45369;BME280;51342;55.250;37.668;2023-02-03T07:58:55;98866.88;;;0.44;80.47
45369;BME280;51342;55.250;37.668;2023-02-03T08:01:27;98868.66;;;0.45;80.31
45369;BME280;51342;55.250;37.668;2023-02-03T08:03:58;98870.47;;;0.46;80.35
45369;BME280;51342;55.250;37.668;2023-02-03T08:06:32;98866.09;;;0.45;80.48
45369;BME280;51342;55.250;37.668;2023-02-03T08:09:03;98863.22;;;0.41;80.60
45369;BME280;51342;55.250;37.668;2023-02-03T08:11:34;98859.13;;;0.43;80.07
45369;BME280;51342;55.250;37.668;2023-02-03T08:14:06;98872.34;;;0.49;80.24
45369;BME280;51342;55.250;37.668;2023-02-03T08:16:38;98871.72;;;0.51;79.91
45369;BME280;51342;55.250;37.668;2023-02-03T08:19:09;98869.41;;;0.55;80.07
45369;BME280;51342;55.250;37.668;2023-02-03T08:21:41;98865.34;;;0.57;80.01
45369;BME280;51342;55.250;37.668;2023-02-03T08:24:12;98867.50;;;0.62;80.00
45369;BME280;51342;55.250;37.668;2023-02-03T08:26:44;98867.66;;;0.64;79.57
45369;BME280;51342;55.250;37.668;2023-02-03T08:29:15;98863.56;;;0.66;79.85
45369;BME280;51342;55.250;37.668;2023-02-03T08:31:47;98868.91;;;0.69;79.62
45369;BME280;51342;55.250;37.668;2023-02-03T08:34:18;98876.00;;;0.73;79.51
45369;BME280;51342;55.250;37.668;2023-02-03T08:36:49;98864.44;;;0.76;79.50
45369;BME280;51342;55.250;37.668;2023-02-03T08:39:21;98860.84;;;0.85;79.55
45369;BME280;51342;55.250;37.668;2023-02-03T08:41:53;98863.88;;;0.91;79.35
45369;BME280;51342;55.250;37.668;2023-02-03T08:44:24;98865.16;;;0.96;79.14
45369;BME280;51342;55.250;37.668;2023-02-03T08:46:56;98848.09;;;0.95;79.03
45369;BME280;51342;55.250;37.668;2023-02-03T08:49:29;98863.88;;;1.01;79.13
45369;BME280;51342;55.250;37.668;2023-02-03T08:52:00;98860.94;;;1.06;79.03
45369;BME280;51342;55.250;37.668;2023-02-03T08:54:32;98857.75;;;1.09;78.60
45369;BME280;51342;55.250;37.668;2023-02-03T08:57:04;98842.22;;;1.06;78.47
45369;BME280;51342;55.250;37.668;2023-02-03T08:59:40;98852.41;;;1.06;78.66
45369;BME280;51342;55.250;37.668;2023-02-03T09:02:17;98854.94;;;1.06;78.55
45369;BME280;51342;55.250;37.668;2023-02-03T09:08:09;98850.50;;;1.03;78.49
45369;BME280;51342;55.250;37.668;2023-02-03T09:10:40;98852.88;;;1.12;78.32
45369;BME280;51342;55.250;37.668;2023-02-03T09:13:12;98843.59;;;1.13;78.34
45369;BME280;51342;55.250;37.668;2023-02-03T09:15:43;98850.72;;;1.17;78.29
45369;BME280;51342;55.250;37.668;2023-02-03T09:18:14;98851.84;;;1.20;78.01
45369;BME280;51342;55.250;37.668;2023-02-03T09:20:46;98847.13;;;1.25;78.03
45369;BME280;51342;55.250;37.668;2023-02-03T09:23:35;98845.81;;;1.30;77.81
45369;BME280;51342;55.250;37.668;2023-02-03T09:26:14;98839.69;;;1.38;77.67
45369;BME280;51342;55.250;37.668;2023-02-03T09:28:46;98827.94;;;1.40;77.59
45369;BME280;51342;55.250;37.668;2023-02-03T09:31:18;98833.78;;;1.49;77.40
45369;BME280;51342;55.250;37.668;2023-02-03T09:33:49;98828.16;;;1.53;77.12
45369;BME280;51342;55.250;37.668;2023-02-03T09:36:21;98846.94;;;1.66;76.93
45369;BME280;51342;55.250;37.668;2023-02-03T09:38:52;98844.31;;;1.76;76.63
45369;BME280;51342;55.250;37.668;2023-02-03T09:41:29;98842.19;;;1.92;76.57
45369;BME280;51342;55.250;37.668;2023-02-03T09:44:32;98834.66;;;1.94;76.12
45369;BME280;51342;55.250;37.668;2023-02-03T09:47:16;98837.53;;;1.98;75.95
45369;BME280;51342;55.250;37.668;2023-02-03T09:50:02;98835.00;;;1.98;75.31
45369;BME280;51342;55.250;37.668;2023-02-03T09:52:38;98841.34;;;2.03;75.05
45369;BME280;51342;55.250;37.668;2023-02-03T09:58:11;98832.69;;;2.01;75.21
45369;BME280;51342;55.250;37.668;2023-02-03T10:00:47;98839.47;;;2.01;75.09
45369;BME280;51342;55.250;37.668;2023-02-03T10:03:23;98835.34;;;2.03;75.31
45369;BME280;51342;55.250;37.668;2023-02-03T10:06:09;98839.03;;;2.06;74.89
45369;BME280;51342;55.250;37.668;2023-02-03T10:08:53;98832.38;;;2.08;74.56
45369;BME280;51342;55.250;37.668;2023-02-03T10:14:44;98837.41;;;2.19;74.41
45369;BME280;51342;55.250;37.668;2023-02-03T10:17:51;98833.31;;;2.21;73.90
45369;BME280;51342;55.250;37.668;2023-02-03T10:20:18;98837.00;;;2.02;75.16
45369;BME280;51342;55.250;37.668;2023-02-03T10:22:55;98834.66;;;2.16;74.14
45369;BME280;51342;55.250;37.668;2023-02-03T10:25:54;98829.66;;;2.17;73.84
45369;BME280;51342;55.250;37.668;2023-02-03T10:29:18;98831.78;;;2.23;73.47
45369;BME280;51342;55.250;37.668;2023-02-03T10:31:49;98834.78;;;2.29;73.45
45369;BME280;51342;55.250;37.668;2023-02-03T10:34:21;98828.22;;;2.32;73.29
45369;BME280;51342;55.250;37.668;2023-02-03T10:37:02;98824.16;;;2.34;73.15
45369;BME280;51342;55.250;37.668;2023-02-03T10:39:43;98831.13;;;2.37;72.94
45369;BME280;51342;55.250;37.668;2023-02-03T10:42:15;98825.38;;;2.39;72.70
45369;BME280;51342;55.250;37.668;2023-02-03T10:44:51;98822.47;;;2.35;72.26
45369;BME280;51342;55.250;37.668;2023-02-03T10:47:36;98826.09;;;2.27;72.06
45369;BME280;51342;55.250;37.668;2023-02-03T10:50:21;98825.00;;;2.23;72.22
45369;BME280;51342;55.250;37.668;2023-02-03T10:56:15;98818.88;;;2.21;71.93
45369;BME280;51342;55.250;37.668;2023-02-03T10:58:52;98825.13;;;2.25;71.81
45369;BME280;51342;55.250;37.668;2023-02-03T11:01:55;98819.38;;;2.27;71.78
45369;BME280;51342;55.250;37.668;2023-02-03T11:05:09;98812.47;;;2.26;71.91
45369;BME280;51342;55.250;37.668;2023-02-03T11:08:01;98817.56;;;2.26;71.93
45369;BME280;51342;55.250;37.668;2023-02-03T11:11:00;98812.13;;;2.22;71.82
45369;BME280;51342;55.250;37.668;2023-02-03T11:13:33;98817.47;;;2.25;71.63
45369;BME280;51342;55.250;37.668;2023-02-03T11:16:16;98817.47;;;2.25;71.70
45369;BME280;51342;55.250;37.668;2023-02-03T11:19:01;98818.13;;;2.22;71.74
45369;BME280;51342;55.250;37.668;2023-02-03T11:27:14;98817.00;;;2.19;71.56
45369;BME280;51342;55.250;37.668;2023-02-03T11:29:49;98824.53;;;2.17;71.53
45369;BME280;51342;55.250;37.668;2023-02-03T11:32:34;98815.66;;;2.12;71.37
45369;BME280;51342;55.250;37.668;2023-02-03T11:35:21;98816.28;;;2.09;71.50
45369;BME280;51342;55.250;37.668;2023-02-03T11:37:59;98821.63;;;2.12;71.69
45369;BME280;51342;55.250;37.668;2023-02-03T11:40:35;98821.28;;;2.08;71.82
45369;BME280;51342;55.250;37.668;2023-02-03T11:43:15;98821.44;;;1.88;72.15
45369;BME280;51342;55.250;37.668;2023-02-03T11:45:50;98818.81;;;1.98;72.05
45369;BME280;51342;55.250;37.668;2023-02-03T11:48:55;98818.47;;;1.93;72.13
45369;BME280;51342;55.250;37.668;2023-02-03T11:51:46;98823.69;;;1.95;72.54
45369;BME280;51342;55.250;37.668;2023-02-03T12:21:41;98811.06;;;1.74;73.27
45369;BME280;51342;55.250;37.668;2023-02-03T12:29:29;98802.06;;;1.68;73.70
45369;BME280;51342;55.250;37.668;2023-02-03T12:32:30;98801.31;;;1.58;73.83
45369;BME280;51342;55.250;37.668;2023-02-03T12:40:32;98799.34;;;1.54;74.13
45369;BME280;51342;55.250;37.668;2023-02-03T12:45:53;98798.97;;;1.50;74.80
45369;BME280;51342;55.250;37.668;2023-02-03T12:51:18;98802.66;;;1.53;74.39
45369;BME280;51342;55.250;37.668;2023-02-03T12:54:00;98798.19;;;1.51;74.19
45369;BME280;51342;55.250;37.668;2023-02-03T12:56:40;98802.28;;;1.49;74.85
45369;BME280;51342;55.250;37.668;2023-02-03T12:59:19;98799.75;;;1.49;74.32
45369;BME280;51342;55.250;37.668;2023-02-03T13:01:59;98801.16;;;1.45;74.65
45369;BME280;51342;55.250;37.668;2023-02-03T13:04:45;98807.81;;;1.43;74.56
45369;BME280;51342;55.250;37.668;2023-02-03T13:07:25;98803.59;;;1.44;74.81
45369;BME280;51342;55.250;37.668;2023-02-03T13:12:40;98798.91;;;1.38;74.87
45369;BME280;51342;55.250;37.668;2023-02-03T13:15:31;98801.97;;;1.34;75.04
45369;BME280;51342;55.250;37.668;2023-02-03T13:20:45;98806.31;;;1.35;75.20
45369;BME280;51342;55.250;37.668;2023-02-03T13:23:17;98798.66;;;1.35;75.31
45369;BME280;51342;55.250;37.668;2023-02-03T13:26:02;98800.19;;;1.33;75.39
45369;BME280;51342;55.250;37.668;2023-02-03T13:42:59;98796.06;;;1.13;75.50
45369;BME280;51342;55.250;37.668;2023-02-03T13:45:45;98800.53;;;1.16;75.29
45369;BME280;51342;55.250;37.668;2023-02-03T13:48:24;98800.16;;;1.11;75.35
45369;BME280;51342;55.250;37.668;2023-02-03T13:51:19;98803.38;;;1.09;75.44
45369;BME280;51342;55.250;37.668;2023-02-03T13:53:58;98790.63;;;1.09;75.49
45369;BME280;51342;55.250;37.668;2023-02-03T13:56:31;98803.50;;;1.10;75.77
45369;BME280;51342;55.250;37.668;2023-02-03T14:01:43;98805.94;;;0.98;75.85
45369;BME280;51342;55.250;37.668;2023-02-03T14:07:01;98808.91;;;0.93;75.77
45369;BME280;51342;55.250;37.668;2023-02-03T14:09:35;98811.34;;;0.91;75.89
45369;BME280;51342;55.250;37.668;2023-02-03T14:12:17;98805.88;;;0.87;75.88
45369;BME280;51342;55.250;37.668;2023-02-03T14:23:04;98810.88;;;0.75;76.54
45369;BME280;51342;55.250;37.668;2023-02-03T14:25:57;98802.25;;;0.63;76.48
45369;BME280;51342;55.250;37.668;2023-02-03T14:28:41;98807.69;;;0.67;76.51
45369;BME280;51342;55.250;37.668;2023-02-03T14:31:17;98806.00;;;0.68;76.60
45369;BME280;51342;55.250;37.668;2023-02-03T14:39:03;98814.56;;;0.68;76.90
45369;BME280;51342;55.250;37.668;2023-02-03T14:45:48;98810.38;;;0.59;77.19
45369;BME280;51342;55.250;37.668;2023-02-03T14:57:08;98818.28;;;0.51;77.53
45369;BME280;51342;55.250;37.668;2023-02-03T14:59:52;98816.63;;;0.52;77.47
45369;BME280;51342;55.250;37.668;2023-02-03T15:02:27;98823.59;;;0.55;77.48
45369;BME280;51342;55.250;37.668;2023-02-03T15:07:47;98823.50;;;0.53;77.71
45369;BME280;51342;55.250;37.668;2023-02-03T15:10:22;98819.03;;;0.50;77.60
45369;BME280;51342;55.250;37.668;2023-02-03T15:12:55;98825.16;;;0.52;78.10
45369;BME280;51342;55.250;37.668;2023-02-03T15:15:30;98824.88;;;0.49;77.96
45369;BME280;51342;55.250;37.668;2023-02-03T15:18:30;98823.63;;;0.44;77.76
45369;BME280;51342;55.250;37.668;2023-02-03T15:21:03;98820.84;;;0.41;77.90
45369;BME280;51342;55.250;37.668;2023-02-03T15:23:40;98829.34;;;0.42;78.11
45369;BME280;51342;55.250;37.668;2023-02-03T15:26:33;98835.84;;;0.38;77.95
45369;BME280;51342;55.250;37.668;2023-02-03T15:29:27;98836.00;;;0.40;78.25
45369;BME280;51342;55.250;37.668;2023-02-03T15:32:12;98836.09;;;0.41;78.14
45369;BME280;51342;55.250;37.668;2023-02-03T15:34:50;98838.38;;;0.38;78.13
45369;BME280;51342;55.250;37.668;2023-02-03T15:40:21;98840.31;;;0.41;78.38
45369;BME280;51342;55.250;37.668;2023-02-03T15:42:57;98837.09;;;0.43;78.34
45369;BME280;51342;55.250;37.668;2023-02-03T15:45:32;98833.44;;;0.40;78.36
45369;BME280;51342;55.250;37.668;2023-02-03T15:48:19;98838.25;;;0.37;78.54
45369;BME280;51342;55.250;37.668;2023-02-03T15:54:03;98838.91;;;0.34;78.50
45369;BME280;51342;55.250;37.668;2023-02-03T15:56:46;98838.91;;;0.34;78.67
45369;BME280;51342;55.250;37.668;2023-02-03T16:02:14;98841.97;;;0.30;78.93
45369;BME280;51342;55.250;37.668;2023-02-03T16:04:49;98838.00;;;0.34;78.84
45369;BME280;51342;55.250;37.668;2023-02-03T16:07:22;98851.75;;;0.36;78.99
45369;BME280;51342;55.250;37.668;2023-02-03T16:09:57;98853.03;;;0.41;78.80
45369;BME280;51342;55.250;37.668;2023-02-03T16:12:32;98851.09;;;0.38;78.92
45369;BME280;51342;55.250;37.668;2023-02-03T16:15:04;98856.47;;;0.41;79.06
45369;BME280;51342;55.250;37.668;2023-02-03T16:17:36;98851.09;;;0.38;78.75